Ragan, Nebraska
Current Conditions -  °F | °C
As of 11:15 AM on Friday 19 Dec 2014 (Local Time) from KHDE Reporting Station
Moderate Fog Moderate Fog  
Wind Chill: 20°   Ceiling: 200
Heat Index: 28°   Visibility: 0.5mi
Dew Point: 27°   Wind: 7mph
Humidity: 96%   Direction: 200°SSW
Pressure: 30.14"   Gusts: NA
Location:  40.31°N, 99.29°W
Report Text: KHDE 191715Z AUTO 20006KT 1/2SM FZFG OVC002 M02/M03 A3014 RMK AO2 T10241029
Loading
Personal Weather Stations






























Interactive Weather Map New forecast layout! Learn more

10-Day Weather Forecast

Advertisements
Track Severe Weather on mobile